USCMUSSS

Guest
Details From USCM - Magnitogorsk
To USSS - Koltsovo
Flight Number -
Tags Generated
Created
Modified
Stats Distance 214 nm / 396 km
Max Altitude 0 ft / 0 m
Waypoints 2
Social Downloads 1
Likes 0
Share VATSIM

Download

Looking for another format? Having issues loading an existing format? Contact us
Advertisement - Login to hide

Notes

Generated

Route

USCM USSS

ID Type Via Altitude Latitude Longitude Leg Dist Tot Dist Heading (true) Name
O USCM APT - 0 ft / 0 m 53.37912˚ 58.74883˚ - 0 nm - -
O USSS APT - 0 ft / 0 m 56.74481˚ 60.78140˚ 213 nm 213 nm 18° / 20° -

Altitude Profile

Advertisement - Login to hide

Weather


0- 5 10 15 20 25 30 35+ Temperature / ° C

Clouds and Precipitation
Forecast for 2017-12-12 00:00 UTC. Updated 5 minutes ago

Ground ~20,000 ft ~40,000 ft Winds

USCM

Details ICAO USCM (MQF)
Name MAGNITOGORSK
Region Russia
Timezone Asia/Yekaterinburg (UTC+5.0)
Stats Elevation 1,431 ft / 436 m (AMSL)
Location 53.393132° 58.755661°
Runways 1
Magnetic Variation 12.521° E

METAR

USCM 112100Z 00000MPS 5000 0350S R36/0900D FZFG VV002 M23/M26 Q1030 R36/810160 TEMPO 0500 FZFG VV001 RMK QBB060 QFE733

Decode

TAF

Not found

Departure Runways

ID Width Length Bearing (true) Bearing (mag) Surface Threshold Offset Overrun Length
01 148 ft / 45 m 10,648 ft / 3,246 m 16.20° 3.68° Concrete 0 ft / 0 m 140 ft / 43 m
19 148 ft / 45 m 10,648 ft / 3,246 m 196.21° 183.69° Concrete 0 ft / 0 m 140 ft / 43 m

USSS

Details ICAO USSS (SVX)
Name KOLTSOVO
Region Russia
Timezone Asia/Yekaterinburg (UTC+5.0)
Stats Elevation 764 ft / 233 m (AMSL)
Location 56.743108° 60.802727°
Runways 2
Magnetic Variation 14.863° E

METAR

USSS 112100Z 00000MPS 4200 -SN BR SCT002 BKN009 M23/M26 Q1031 R26R/450245 NOSIG RMK QFE752/1003

Decode

TAF

TAF USSS 111953Z 1121/1221 17003MPS 2100 -SN BR BKN007 TEMPO 1121/1207 VRB01MPS 0300 FZFG VV002 BECMG 1207/1209 5000 BR SCT011

Decode

Destination Runways

ID Width Length Bearing (true) Bearing (mag) Surface Threshold Offset Overrun Length
08L 148 ft / 45 m 8,172 ft / 2,491 m 90.13° 75.27° Asphalt 0 ft / 0 m 230 ft / 70 m
08R 174 ft / 53 m 9,861 ft / 3,006 m 94.09° 79.23° Concrete 246 ft / 75 m 165 ft / 50 m
26L 174 ft / 53 m 9,861 ft / 3,006 m 274.14° 259.28° Concrete 1,066 ft / 325 m 165 ft / 50 m
26R 148 ft / 45 m 8,172 ft / 2,491 m 270.17° 255.31° Asphalt 0 ft / 0 m 220 ft / 67 m

Approach Navaids

Runway Type Ident Frequency Range Bearing (true) Bearing (mag) Slope Elevation
08R Localiser IEL 109.90 MHz 18 nm / 33 km 94.03° 79.17° - 764 ft / 233 m (AMSL)
08R Glidescope IEL 109.90 MHz 10 nm / 19 km 94.11° 79.25° 2.70° 764 ft / 233 m (AMSL)
26L Localiser IED 109.50 MHz 18 nm / 33 km 272.26° 257.40° - 764 ft / 233 m (AMSL)
26L Glidescope IED 109.50 MHz 10 nm / 19 km 274.12° 259.25° 2.80° 764 ft / 233 m (AMSL)
26R Localiser IKU 110.50 MHz 18 nm / 33 km 270.48° 255.62° - 764 ft / 233 m (AMSL)
26R Glidescope IKU 110.50 MHz 10 nm / 19 km 270.15° 255.29° 3.00° 764 ft / 233 m (AMSL)

Popular Alternatives